sensor_id;sensor_type;location;lat;lon;timestamp;P1;durP1;ratioP1;P2;durP2;ratioP2
16430;SDS011;8325;49.284;7.238;2022-08-01T04:03:02;3.05;;;2.70;;
16430;SDS011;8325;49.284;7.238;2022-08-01T04:07:24;3.30;;;2.60;;
16430;SDS011;8325;49.284;7.238;2022-08-01T04:11:38;2.58;;;2.38;;
16430;SDS011;8325;49.284;7.238;2022-08-01T04:15:49;2.42;;;2.25;;
16430;SDS011;8325;49.284;7.238;2022-08-01T04:20:01;2.50;;;2.30;;
16430;SDS011;8325;49.284;7.238;2022-08-01T04:24:14;2.95;;;2.50;;
16430;SDS011;8325;49.284;7.238;2022-08-01T04:28:28;2.88;;;2.55;;
16430;SDS011;8325;49.284;7.238;2022-08-01T04:32:44;3.15;;;2.45;;
16430;SDS011;8325;49.284;7.238;2022-08-01T04:36:58;3.15;;;2.58;;
16430;SDS011;8325;49.284;7.238;2022-08-01T04:41:12;3.03;;;2.28;;
16430;SDS011;8325;49.284;7.238;2022-08-01T04:45:24;4.22;;;2.53;;
16430;SDS011;8325;49.284;7.238;2022-08-01T04:49:37;2.55;;;2.35;;
16430;SDS011;8325;49.284;7.238;2022-08-01T04:53:59;2.60;;;2.40;;
16430;SDS011;8325;49.284;7.238;2022-08-01T04:58:12;3.20;;;2.60;;
16430;SDS011;8325;49.284;7.238;2022-08-01T05:02:28;3.97;;;2.75;;
16430;SDS011;8325;49.284;7.238;2022-08-01T05:06:40;3.45;;;2.58;;
16430;SDS011;8325;49.284;7.238;2022-08-01T05:10:52;4.18;;;2.78;;
16430;SDS011;8325;49.284;7.238;2022-08-01T05:15:04;3.50;;;2.90;;
16430;SDS011;8325;49.284;7.238;2022-08-01T05:19:16;5.80;;;3.08;;
16430;SDS011;8325;49.284;7.238;2022-08-01T05:23:27;7.10;;;2.47;;
16430;SDS011;8325;49.284;7.238;2022-08-01T05:27:52;2.60;;;2.40;;
16430;SDS011;8325;49.284;7.238;2022-08-01T05:32:04;3.42;;;2.70;;
16430;SDS011;8325;49.284;7.238;2022-08-01T05:36:17;4.35;;;2.40;;
16430;SDS011;8325;49.284;7.238;2022-08-01T05:40:28;3.08;;;2.25;;
16430;SDS011;8325;49.284;7.238;2022-08-01T05:44:40;3.75;;;2.05;;
16430;SDS011;8325;49.284;7.238;2022-08-01T05:48:51;2.30;;;2.00;;
16430;SDS011;8325;49.284;7.238;2022-08-01T05:53:03;2.22;;;2.03;;
16430;SDS011;8325;49.284;7.238;2022-08-01T05:57:15;1.70;;;1.60;;
16430;SDS011;8325;49.284;7.238;2022-08-01T06:01:27;6.50;;;2.00;;
16430;SDS011;8325;49.284;7.238;2022-08-01T06:05:39;1.85;;;1.67;;
16430;SDS011;8325;49.284;7.238;2022-08-01T06:09:51;2.30;;;1.55;;
16430;SDS011;8325;49.284;7.238;2022-08-01T06:14:02;2.80;;;1.75;;
16430;SDS011;8325;49.284;7.238;2022-08-01T06:18:14;1.70;;;1.60;;
16430;SDS011;8325;49.284;7.238;2022-08-01T06:22:26;2.28;;;1.58;;
16430;SDS011;8325;49.284;7.238;2022-08-01T06:26:38;1.75;;;1.50;;
16430;SDS011;8325;49.284;7.238;2022-08-01T06:30:49;2.22;;;1.35;;
16430;SDS011;8325;49.284;7.238;2022-08-01T06:35:01;2.40;;;1.58;;
16430;SDS011;8325;49.284;7.238;2022-08-01T06:39:12;1.88;;;1.70;;
16430;SDS011;8325;49.284;7.238;2022-08-01T06:43:24;4.63;;;1.27;;
16430;SDS011;8325;49.284;7.238;2022-08-01T06:47:36;1.75;;;1.02;;
16430;SDS011;8325;49.284;7.238;2022-08-01T06:51:48;1.30;;;1.20;;
16430;SDS011;8325;49.284;7.238;2022-08-01T06:56:00;1.33;;;1.23;;
16430;SDS011;8325;49.284;7.238;2022-08-01T07:00:12;1.30;;;1.20;;
16430;SDS011;8325;49.284;7.238;2022-08-01T07:04:24;1.73;;;1.35;;
16430;SDS011;8325;49.284;7.238;2022-08-01T07:08:36;1.48;;;1.27;;
16430;SDS011;8325;49.284;7.238;2022-08-01T07:12:49;1.65;;;1.10;;
16430;SDS011;8325;49.284;7.238;2022-08-01T07:17:01;1.30;;;1.10;;
16430;SDS011;8325;49.284;7.238;2022-08-01T07:21:12;1.92;;;1.02;;
16430;SDS011;8325;49.284;7.238;2022-08-01T07:25:44;2.88;;;1.33;;
16430;SDS011;8325;49.284;7.238;2022-08-01T07:30:03;1.33;;;1.13;;
16430;SDS011;8325;49.284;7.238;2022-08-01T07:34:16;2.25;;;0.93;;
16430;SDS011;8325;49.284;7.238;2022-08-01T07:38:27;1.00;;;0.90;;
16430;SDS011;8325;49.284;7.238;2022-08-01T07:42:39;1.00;;;0.90;;
16430;SDS011;8325;49.284;7.238;2022-08-01T07:46:54;1.98;;;0.93;;
16430;SDS011;8325;49.284;7.238;2022-08-01T07:51:06;1.52;;;0.90;;
16430;SDS011;8325;49.284;7.238;2022-08-01T07:55:17;0.80;;;0.80;;
16430;SDS011;8325;49.284;7.238;2022-08-01T07:59:29;1.10;;;1.00;;
16430;SDS011;8325;49.284;7.238;2022-08-01T08:03:41;1.05;;;0.95;;
16430;SDS011;8325;49.284;7.238;2022-08-01T08:07:53;3.42;;;1.20;;
16430;SDS011;8325;49.284;7.238;2022-08-01T08:12:04;2.15;;;0.80;;
16430;SDS011;8325;49.284;7.238;2022-08-01T08:16:17;0.68;;;0.68;;
16430;SDS011;8325;49.284;7.238;2022-08-01T08:20:29;0.85;;;0.65;;
16430;SDS011;8325;49.284;7.238;2022-08-01T08:24:41;0.80;;;0.80;;
16430;SDS011;8325;49.284;7.238;2022-08-01T08:28:56;0.70;;;0.70;;
16430;SDS011;8325;49.284;7.238;2022-08-01T08:33:08;0.80;;;0.80;;
16430;SDS011;8325;49.284;7.238;2022-08-01T08:37:24;1.25;;;0.95;;
16430;SDS011;8325;49.284;7.238;2022-08-01T08:41:42;1.00;;;0.75;;
16430;SDS011;8325;49.284;7.238;2022-08-01T08:45:59;1.75;;;0.70;;
16430;SDS011;8325;49.284;7.238;2022-08-01T08:50:12;1.67;;;1.10;;
16430;SDS011;8325;49.284;7.238;2022-08-01T08:54:24;1.67;;;1.20;;
16430;SDS011;8325;49.284;7.238;2022-08-01T08:58:43;2.17;;;1.02;;
16430;SDS011;8325;49.284;7.238;2022-08-01T09:02:56;1.20;;;0.90;;
16430;SDS011;8325;49.284;7.238;2022-08-01T09:07:07;1.92;;;1.23;;
16430;SDS011;8325;49.284;7.238;2022-08-01T09:11:22;3.38;;;1.50;;
16430;SDS011;8325;49.284;7.238;2022-08-01T09:15:53;1.30;;;1.20;;
16430;SDS011;8325;49.284;7.238;2022-08-01T09:20:06;1.77;;;1.30;;
16430;SDS011;8325;49.284;7.238;2022-08-01T09:24:18;1.30;;;1.20;;
16430;SDS011;8325;49.284;7.238;2022-08-01T09:28:41;3.15;;;1.50;;
16430;SDS011;8325;49.284;7.238;2022-08-01T09:33:02;3.50;;;1.58;;
16430;SDS011;8325;49.284;7.238;2022-08-01T09:37:31;2.85;;;1.20;;
16430;SDS011;8325;49.284;7.238;2022-08-01T09:41:55;1.20;;;1.10;;
16430;SDS011;8325;49.284;7.238;2022-08-01T09:46:09;1.40;;;1.10;;
16430;SDS011;8325;49.284;7.238;2022-08-01T09:50:25;2.40;;;1.30;;
16430;SDS011;8325;49.284;7.238;2022-08-01T09:54:59;2.03;;;1.30;;
16430;SDS011;8325;49.284;7.238;2022-08-01T09:59:12;3.22;;;1.70;;
16430;SDS011;8325;49.284;7.238;2022-08-01T10:03:25;1.50;;;1.40;;
16430;SDS011;8325;49.284;7.238;2022-08-01T10:12:10;1.63;;;1.45;;
16430;SDS011;8325;49.284;7.238;2022-08-01T10:16:26;1.88;;;1.50;;
16430;SDS011;8325;49.284;7.238;2022-08-01T10:20:40;2.70;;;1.75;;
16430;SDS011;8325;49.284;7.238;2022-08-01T10:24:53;4.40;;;1.77;;
16430;SDS011;8325;49.284;7.238;2022-08-01T10:29:06;2.65;;;1.20;;
16430;SDS011;8325;49.284;7.238;2022-08-01T10:33:39;2.42;;;1.30;;
16430;SDS011;8325;49.284;7.238;2022-08-01T10:38:03;1.60;;;1.50;;
16430;SDS011;8325;49.284;7.238;2022-08-01T10:42:16;3.17;;;1.25;;
16430;SDS011;8325;49.284;7.238;2022-08-01T10:46:30;1.60;;;1.20;;
16430;SDS011;8325;49.284;7.238;2022-08-01T10:50:46;1.42;;;1.30;;
16430;SDS011;8325;49.284;7.238;2022-08-01T10:55:04;2.05;;;1.40;;
16430;SDS011;8325;49.284;7.238;2022-08-01T10:59:35;1.95;;;1.33;;
16430;SDS011;8325;49.284;7.238;2022-08-01T11:04:10;1.20;;;1.10;;
16430;SDS011;8325;49.284;7.238;2022-08-01T11:08:27;1.58;;;1.20;;
16430;SDS011;8325;49.284;7.238;2022-08-01T11:12:40;1.60;;;1.25;;
16430;SDS011;8325;49.284;7.238;2022-08-01T11:16:54;1.25;;;1.15;;
16430;SDS011;8325;49.284;7.238;2022-08-01T11:21:06;1.20;;;1.10;;
16430;SDS011;8325;49.284;7.238;2022-08-01T11:34:51;1.20;;;0.90;;
16430;SDS011;8325;49.284;7.238;2022-08-01T11:43:24;1.08;;;0.98;;
16430;SDS011;8325;49.284;7.238;2022-08-01T11:56:14;1.58;;;0.80;;
16430;SDS011;8325;49.284;7.238;2022-08-01T12:00:27;1.13;;;0.90;;
16430;SDS011;8325;49.284;7.238;2022-08-01T12:04:45;1.30;;;1.20;;
16430;SDS011;8325;49.284;7.238;2022-08-01T12:09:19;1.02;;;0.93;;
16430;SDS011;8325;49.284;7.238;2022-08-01T12:13:41;1.25;;;1.15;;
16430;SDS011;8325;49.284;7.238;2022-08-01T12:17:58;1.08;;;1.00;;
16430;SDS011;8325;49.284;7.238;2022-08-01T12:22:13;1.95;;;1.00;;
16430;SDS011;8325;49.284;7.238;2022-08-01T12:26:38;1.35;;;0.88;;
16430;SDS011;8325;49.284;7.238;2022-08-01T12:30:51;2.35;;;1.05;;
16430;SDS011;8325;49.284;7.238;2022-08-01T12:35:22;1.05;;;0.93;;
16430;SDS011;8325;49.284;7.238;2022-08-01T12:39:35;1.60;;;1.08;;
16430;SDS011;8325;49.284;7.238;2022-08-01T12:43:50;2.03;;;1.10;;
16430;SDS011;8325;49.284;7.238;2022-08-01T12:48:03;0.98;;;0.90;;
16430;SDS011;8325;49.284;7.238;2022-08-01T12:52:19;0.90;;;0.90;;
16430;SDS011;8325;49.284;7.238;2022-08-01T12:56:37;0.80;;;0.80;;
16430;SDS011;8325;49.284;7.238;2022-08-01T13:00:49;0.80;;;0.80;;
16430;SDS011;8325;49.284;7.238;2022-08-01T13:05:13;0.73;;;0.73;;
16430;SDS011;8325;49.284;7.238;2022-08-01T13:09:26;0.68;;;0.68;;
16430;SDS011;8325;49.284;7.238;2022-08-01T13:13:40;1.05;;;1.00;;
16430;SDS011;8325;49.284;7.238;2022-08-01T13:18:00;0.77;;;0.77;;
16430;SDS011;8325;49.284;7.238;2022-08-01T13:22:32;0.70;;;0.70;;
16430;SDS011;8325;49.284;7.238;2022-08-01T13:31:05;1.25;;;0.60;;
16430;SDS011;8325;49.284;7.238;2022-08-01T13:35:19;1.02;;;0.88;;
16430;SDS011;8325;49.284;7.238;2022-08-01T13:39:31;1.67;;;0.70;;
16430;SDS011;8325;49.284;7.238;2022-08-01T13:43:52;0.82;;;0.70;;
16430;SDS011;8325;49.284;7.238;2022-08-01T13:48:09;0.90;;;0.80;;
16430;SDS011;8325;49.284;7.238;2022-08-01T13:52:29;0.80;;;0.80;;
16430;SDS011;8325;49.284;7.238;2022-08-01T13:56:40;1.00;;;0.85;;
16430;SDS011;8325;49.284;7.238;2022-08-01T14:00:52;1.00;;;0.80;;
16430;SDS011;8325;49.284;7.238;2022-08-01T14:05:05;0.60;;;0.60;;
16430;SDS011;8325;49.284;7.238;2022-08-01T14:09:16;2.00;;;0.60;;
16430;SDS011;8325;49.284;7.238;2022-08-01T14:13:34;0.65;;;0.63;;
16430;SDS011;8325;49.284;7.238;2022-08-01T14:17:55;0.50;;;0.50;;
16430;SDS011;8325;49.284;7.238;2022-08-01T14:22:07;1.08;;;0.80;;
16430;SDS011;8325;49.284;7.238;2022-08-01T14:26:19;1.85;;;0.77;;
16430;SDS011;8325;49.284;7.238;2022-08-01T14:30:30;1.48;;;0.70;;
16430;SDS011;8325;49.284;7.238;2022-08-01T14:34:42;0.80;;;0.80;;
16430;SDS011;8325;49.284;7.238;2022-08-01T14:38:53;0.77;;;0.63;;
16430;SDS011;8325;49.284;7.238;2022-08-01T14:43:10;1.92;;;0.60;;
16430;SDS011;8325;49.284;7.238;2022-08-01T14:47:39;1.55;;;0.75;;
16430;SDS011;8325;49.284;7.238;2022-08-01T14:51:52;0.70;;;0.60;;
16430;SDS011;8325;49.284;7.238;2022-08-01T14:56:04;0.80;;;0.60;;
16430;SDS011;8325;49.284;7.238;2022-08-01T15:00:16;0.55;;;0.55;;
16430;SDS011;8325;49.284;7.238;2022-08-01T15:04:28;0.77;;;0.75;;
16430;SDS011;8325;49.284;7.238;2022-08-01T15:08:41;0.70;;;0.70;;
16430;SDS011;8325;49.284;7.238;2022-08-01T15:12:54;1.00;;;0.70;;
16430;SDS011;8325;49.284;7.238;2022-08-01T15:17:06;1.15;;;0.70;;
16430;SDS011;8325;49.284;7.238;2022-08-01T15:21:18;0.80;;;0.63;;
16430;SDS011;8325;49.284;7.238;2022-08-01T15:25:50;1.17;;;0.73;;
16430;SDS011;8325;49.284;7.238;2022-08-01T15:30:02;0.70;;;0.70;;
16430;SDS011;8325;49.284;7.238;2022-08-01T15:34:14;1.90;;;0.60;;
16430;SDS011;8325;49.284;7.238;2022-08-01T15:38:26;1.17;;;0.90;;
16430;SDS011;8325;49.284;7.238;2022-08-01T15:42:37;0.90;;;0.88;;
16430;SDS011;8325;49.284;7.238;2022-08-01T15:46:49;1.17;;;0.75;;
16430;SDS011;8325;49.284;7.238;2022-08-01T15:51:01;0.68;;;0.68;;
16430;SDS011;8325;49.284;7.238;2022-08-01T15:55:13;0.75;;;0.75;;
16430;SDS011;8325;49.284;7.238;2022-08-01T15:59:24;0.60;;;0.60;;
16430;SDS011;8325;49.284;7.238;2022-08-01T16:03:36;0.80;;;0.80;;
16430;SDS011;8325;49.284;7.238;2022-08-01T16:07:47;2.30;;;0.68;;
16430;SDS011;8325;49.284;7.238;2022-08-01T16:12:11;1.00;;;0.90;;
16430;SDS011;8325;49.284;7.238;2022-08-01T16:16:23;1.10;;;0.77;;
16430;SDS011;8325;49.284;7.238;2022-08-01T16:20:34;0.80;;;0.80;;
16430;SDS011;8325;49.284;7.238;2022-08-01T16:24:54;1.02;;;0.82;;
16430;SDS011;8325;49.284;7.238;2022-08-01T16:29:11;0.80;;;0.80;;
16430;SDS011;8325;49.284;7.238;2022-08-01T16:33:22;0.55;;;0.55;;
16430;SDS011;8325;49.284;7.238;2022-08-01T16:37:54;1.08;;;0.80;;
16430;SDS011;8325;49.284;7.238;2022-08-01T16:42:05;1.15;;;0.85;;
16430;SDS011;8325;49.284;7.238;2022-08-01T16:46:17;0.90;;;0.70;;
16430;SDS011;8325;49.284;7.238;2022-08-01T16:50:29;1.08;;;0.98;;
16430;SDS011;8325;49.284;7.238;2022-08-01T16:54:41;0.82;;;0.80;;
16430;SDS011;8325;49.284;7.238;2022-08-01T16:58:52;1.95;;;0.98;;
16430;SDS011;8325;49.284;7.238;2022-08-01T17:03:04;1.20;;;1.05;;
16430;SDS011;8325;49.284;7.238;2022-08-01T17:07:28;0.70;;;0.70;;
16430;SDS011;8325;49.284;7.238;2022-08-01T17:11:41;0.70;;;0.70;;
16430;SDS011;8325;49.284;7.238;2022-08-01T17:15:53;1.42;;;0.93;;
16430;SDS011;8325;49.284;7.238;2022-08-01T17:20:04;0.80;;;0.80;;
16430;SDS011;8325;49.284;7.238;2022-08-01T17:24:16;1.00;;;0.90;;
16430;SDS011;8325;49.284;7.238;2022-08-01T17:28:28;0.82;;;0.82;;
16430;SDS011;8325;49.284;7.238;2022-08-01T17:32:40;0.80;;;0.70;;
16430;SDS011;8325;49.284;7.238;2022-08-01T17:36:52;0.70;;;0.70;;
16430;SDS011;8325;49.284;7.238;2022-08-01T17:41:04;2.47;;;0.80;;
16430;SDS011;8325;49.284;7.238;2022-08-01T17:45:15;2.72;;;0.88;;
16430;SDS011;8325;49.284;7.238;2022-08-01T17:49:39;0.93;;;0.90;;
16430;SDS011;8325;49.284;7.238;2022-08-01T17:54:06;2.15;;;0.68;;
16430;SDS011;8325;49.284;7.238;2022-08-01T17:58:18;1.40;;;0.60;;
16430;SDS011;8325;49.284;7.238;2022-08-01T18:02:49;1.85;;;0.90;;
16430;SDS011;8325;49.284;7.238;2022-08-01T18:07:01;1.50;;;0.88;;
16430;SDS011;8325;49.284;7.238;2022-08-01T18:11:14;2.47;;;0.88;;
16430;SDS011;8325;49.284;7.238;2022-08-01T18:15:27;1.58;;;0.80;;
16430;SDS011;8325;49.284;7.238;2022-08-01T18:19:44;2.38;;;0.98;;
16430;SDS011;8325;49.284;7.238;2022-08-01T18:23:57;3.45;;;1.00;;
16430;SDS011;8325;49.284;7.238;2022-08-01T18:28:09;2.67;;;0.82;;
16430;SDS011;8325;49.284;7.238;2022-08-01T18:32:40;1.42;;;0.80;;
16430;SDS011;8325;49.284;7.238;2022-08-01T18:36:53;1.15;;;0.90;;
16430;SDS011;8325;49.284;7.238;2022-08-01T18:41:07;1.35;;;1.05;;
16430;SDS011;8325;49.284;7.238;2022-08-01T18:45:20;2.08;;;0.95;;
16430;SDS011;8325;49.284;7.238;2022-08-01T18:49:32;1.63;;;0.80;;
16430;SDS011;8325;49.284;7.238;2022-08-01T18:53:43;1.85;;;0.88;;
16430;SDS011;8325;49.284;7.238;2022-08-01T18:57:57;2.38;;;1.35;;
16430;SDS011;8325;49.284;7.238;2022-08-01T19:02:08;1.00;;;1.00;;
16430;SDS011;8325;49.284;7.238;2022-08-01T19:06:20;1.08;;;1.00;;
16430;SDS011;8325;49.284;7.238;2022-08-01T19:10:32;5.13;;;1.00;;
16430;SDS011;8325;49.284;7.238;2022-08-01T19:14:44;2.38;;;0.80;;
16430;SDS011;8325;49.284;7.238;2022-08-01T19:18:56;1.23;;;0.90;;
16430;SDS011;8325;49.284;7.238;2022-08-01T19:23:08;1.15;;;0.90;;
16430;SDS011;8325;49.284;7.238;2022-08-01T19:27:38;1.45;;;0.90;;
16430;SDS011;8325;49.284;7.238;2022-08-01T19:31:56;2.50;;;1.00;;
16430;SDS011;8325;49.284;7.238;2022-08-01T19:36:13;1.00;;;1.00;;
16430;SDS011;8325;49.284;7.238;2022-08-01T19:40:26;1.10;;;1.00;;
16430;SDS011;8325;49.284;7.238;2022-08-01T19:44:38;1.17;;;1.00;;
16430;SDS011;8325;49.284;7.238;2022-08-01T19:48:50;2.17;;;1.00;;
16430;SDS011;8325;49.284;7.238;2022-08-01T19:53:04;1.20;;;1.10;;
16430;SDS011;8325;49.284;7.238;2022-08-01T19:57:16;1.42;;;1.13;;
16430;SDS011;8325;49.284;7.238;2022-08-01T20:01:28;0.95;;;0.90;;
16430;SDS011;8325;49.284;7.238;2022-08-01T20:05:40;1.50;;;1.13;;
16430;SDS011;8325;49.284;7.238;2022-08-01T20:09:53;1.98;;;1.10;;
16430;SDS011;8325;49.284;7.238;2022-08-01T20:14:05;1.25;;;1.15;;
16430;SDS011;8325;49.284;7.238;2022-08-01T20:18:17;1.02;;;0.93;;
16430;SDS011;8325;49.284;7.238;2022-08-01T20:22:28;2.47;;;1.08;;
16430;SDS011;8325;49.284;7.238;2022-08-01T20:26:44;4.30;;;1.00;;
16430;SDS011;8325;49.284;7.238;2022-08-01T20:31:00;1.10;;;1.00;;
16430;SDS011;8325;49.284;7.238;2022-08-01T20:35:16;3.03;;;1.08;;
16430;SDS011;8325;49.284;7.238;2022-08-01T20:39:47;1.08;;;0.98;;
16430;SDS011;8325;49.284;7.238;2022-08-01T20:43:59;1.40;;;1.15;;
16430;SDS011;8325;49.284;7.238;2022-08-01T20:48:11;1.58;;;0.90;;
16430;SDS011;8325;49.284;7.238;2022-08-01T20:52:24;0.90;;;0.90;;
16430;SDS011;8325;49.284;7.238;2022-08-01T20:56:37;1.27;;;1.10;;
16430;SDS011;8325;49.284;7.238;2022-08-01T21:00:58;1.33;;;1.10;;
16430;SDS011;8325;49.284;7.238;2022-08-01T21:05:19;2.00;;;0.90;;
16430;SDS011;8325;49.284;7.238;2022-08-01T21:09:37;1.20;;;1.10;;
16430;SDS011;8325;49.284;7.238;2022-08-01T21:13:52;1.10;;;1.00;;
16430;SDS011;8325;49.284;7.238;2022-08-01T21:18:11;2.13;;;1.05;;
16430;SDS011;8325;49.284;7.238;2022-08-01T21:27:20;1.65;;;1.20;;
